Time;durP1;ratioP1;P1;durP2;ratioP2;P2;SDS_P1;SDS_P2;PMS_P1;PMS_P2;Temp;Humidity;BMP_temperature;BMP_pressure;BME280_temperature;BME280_humidity;BME280_pressure;Samples;Min_cycle;Max_cycle;Signal;HPM_P1;HPM_P2
2022/04/30 00:00:09;;;;;;;13.60;12.40;;;14.20;69.60;;;;;;5077620;28;20295;-40
2022/04/30 00:02:35;;;;;;;12.10;11.00;;;14.20;69.90;;;;;;5077895;28;20439;-42
2022/04/30 00:05:01;;;;;;;12.40;11.40;;;14.20;70.30;;;;;;5077953;28;20678;-41
2022/04/30 00:07:27;;;;;;;12.27;11.17;;;14.20;70.70;;;;;;5077453;28;20416;-40
2022/04/30 00:09:53;;;;;;;12.40;11.30;;;14.20;71.10;;;;;;5078893;28;20553;-39
2022/04/30 00:12:18;;;;;;;13.57;12.07;;;14.20;71.40;;;;;;5078870;28;20189;-39
2022/04/30 00:14:46;;;;;;;12.77;11.67;;;14.10;71.50;;;;;;5078422;28;20186;-41
2022/04/30 00:17:12;;;;;;;13.83;12.43;;;14.20;71.80;;;;;;5078579;28;20442;-40
2022/04/30 00:19:48;;;;;;;12.70;11.50;;;14.10;72.10;;;;;;5078394;28;20868;-40
2022/04/30 00:22:14;;;;;;;12.20;11.10;;;14.10;72.10;;;;;;5078378;28;20434;-39
2022/04/30 00:24:39;;;;;;;13.23;12.00;;;14.10;72.40;;;;;;5078151;28;20423;-40
2022/04/30 00:27:05;;;;;;;13.40;12.30;;;14.10;72.80;;;;;;5077740;28;20201;-39
2022/04/30 00:29:31;;;;;;;13.27;12.17;;;14.10;73.10;;;;;;5078515;28;20185;-39
2022/04/30 00:32:00;;;;;;;11.70;10.60;;;14.10;73.30;;;;;;5077595;28;20189;-39
2022/04/30 00:34:35;;;;;;;11.50;10.50;;;14.00;72.80;;;;;;5078124;28;20420;-39
2022/04/30 00:37:04;;;;;;;11.90;11.00;;;14.00;72.30;;;;;;5077664;28;20829;-40
2022/04/30 00:39:31;;;;;;;12.20;11.20;;;14.00;72.10;;;;;;5077301;28;20464;-39
2022/04/30 00:41:57;;;;;;;12.20;11.00;;;13.90;71.90;;;;;;5077473;28;20471;-38
2022/04/30 00:44:22;;;;;;;12.63;11.53;;;13.90;71.70;;;;;;5077873;28;20440;-41
2022/04/30 00:46:51;;;;;;;12.03;10.97;;;13.90;71.60;;;;;;5076972;28;20424;-39
2022/04/30 00:49:18;;;;;;;11.30;10.30;;;13.90;71.50;;;;;;5059612;28;20272;-41
2022/04/30 00:51:44;;;;;;;11.37;10.43;;;13.80;71.10;;;;;;5078070;28;20428;-39
2022/04/30 00:54:11;;;;;;;11.90;10.90;;;13.80;71.10;;;;;;5059513;28;20442;-39
2022/04/30 00:56:43;;;;;;;11.67;10.77;;;13.80;71.10;;;;;;5077454;28;20594;-40
2022/04/30 00:59:10;;;;;;;11.53;10.60;;;13.70;71.00;;;;;;5077667;28;20509;-40
2022/04/30 01:01:36;;;;;;;11.80;10.83;;;13.70;71.10;;;;;;5077912;28;20420;-41
2022/04/30 01:04:03;;;;;;;12.07;10.87;;;13.70;71.40;;;;;;5077073;28;20432;-40
2022/04/30 01:09:53;;;;;;;12.60;11.40;;;13.60;72.00;;;;;;5075536;28;20404;-39
2022/04/30 01:12:20;;;;;;;13.40;12.10;;;13.60;73.40;;;;;;5075952;28;20435;-40
2022/04/30 01:14:47;;;;;;;14.37;13.00;;;13.50;74.60;;;;;;5077317;28;20419;-40
2022/04/30 01:17:12;;;;;;;14.93;13.53;;;13.50;76.20;;;;;;5059341;28;20440;-41
2022/04/30 01:19:41;;;;;;;16.60;14.23;;;13.50;77.10;;;;;;5077044;28;21025;-47
2022/04/30 01:22:13;;;;;;;17.30;15.53;;;13.50;78.10;;;;;;5076450;28;20420;-47
2022/04/30 01:24:40;;;;;;;16.77;15.17;;;13.50;79.30;;;;;;5075841;28;20412;-48
2022/04/30 01:27:06;;;;;;;17.43;15.53;;;13.40;80.20;;;;;;5058316;28;20447;-47
2022/04/30 01:29:39;;;;;;;17.07;15.33;;;13.40;81.00;;;;;;5075649;28;20729;-47
2022/04/30 01:37:36;;;;;;;17.20;15.57;;;13.40;84.10;;;;;;5078994;28;20428;-47
2022/04/30 01:40:04;;;;;;;20.27;18.27;;;13.40;84.70;;;;;;5079568;28;20479;-47
2022/04/30 01:42:32;;;;;;;20.03;16.83;;;13.30;85.40;;;;;;5078985;28;20502;-47
2022/04/30 01:44:58;;;;;;;20.90;18.70;;;13.30;86.00;;;;;;5062357;28;20833;-47
2022/04/30 01:47:24;;;;;;;18.20;16.37;;;13.30;86.50;;;;;;5080070;28;20451;-47
2022/04/30 01:49:51;;;;;;;19.17;17.33;;;13.30;86.80;;;;;;5080942;28;20492;-48
2022/04/30 01:52:17;;;;;;;19.73;17.57;;;13.30;87.10;;;;;;5080256;28;20464;-47
2022/04/30 01:54:43;;;;;;;23.47;19.33;;;13.30;87.60;;;;;;5080483;28;20438;-47
2022/04/30 01:57:09;;;;;;;19.10;17.20;;;13.20;88.10;;;;;;5080480;28;20427;-47
2022/04/30 01:59:34;;;;;;;19.80;17.10;;;13.20;88.40;;;;;;5080359;28;20489;-47
2022/04/30 02:02:02;;;;;;;20.40;18.20;;;13.20;88.70;;;;;;5062988;28;20279;-47
2022/04/30 02:04:29;;;;;;;20.93;16.83;;;13.20;89.30;;;;;;5080474;28;20185;-47
2022/04/30 02:06:56;;;;;;;20.57;18.40;;;13.20;89.60;;;;;;5063316;28;20422;-47
2022/04/30 02:09:22;;;;;;;20.60;17.57;;;13.20;89.80;;;;;;5080138;28;20432;-47
2022/04/30 02:11:48;;;;;;;18.30;16.03;;;13.10;90.00;;;;;;5063010;28;20431;-48
2022/04/30 02:14:15;;;;;;;18.77;15.97;;;13.10;90.00;;;;;;5079916;28;20432;-46
2022/04/30 02:16:42;;;;;;;21.87;16.47;;;13.10;90.10;;;;;;5079814;28;20448;-47
2022/04/30 02:19:08;;;;;;;16.57;14.33;;;13.10;90.10;;;;;;5062072;28;20465;-47
2022/04/30 02:21:35;;;;;;;16.13;14.53;;;13.10;90.20;;;;;;5080540;28;20420;-47
2022/04/30 02:24:02;;;;;;;17.93;16.10;;;13.10;90.20;;;;;;5079952;28;20819;-47
2022/04/30 02:26:28;;;;;;;15.70;14.20;;;13.10;90.10;;;;;;5080220;28;20790;-48
2022/04/30 02:28:57;;;;;;;15.13;13.63;;;13.00;90.10;;;;;;5060936;28;20845;-47
2022/04/30 02:31:27;;;;;;;17.33;15.43;;;13.00;90.30;;;;;;5079635;28;20422;-47
2022/04/30 02:33:56;;;;;;;16.40;13.23;;;13.00;90.40;;;;;;5079694;28;20831;-47
2022/04/30 02:36:26;;;;;;;16.37;14.37;;;13.00;90.40;;;;;;5079486;28;20430;-47
2022/04/30 02:38:59;;;;;;;17.83;14.40;;;12.90;90.30;;;;;;5079255;28;20423;-47
2022/04/30 02:41:26;;;;;;;15.70;14.27;;;12.90;90.50;;;;;;5079591;28;20428;-47
2022/04/30 02:43:52;;;;;;;14.37;12.97;;;12.90;90.60;;;;;;5079631;28;20420;-47
2022/04/30 02:46:20;;;;;;;17.13;15.33;;;12.90;90.60;;;;;;5080183;28;20459;-47
2022/04/30 02:48:46;;;;;;;16.00;13.13;;;12.80;90.60;;;;;;5078453;28;20838;-48
2022/04/30 02:51:12;;;;;;;17.87;15.87;;;12.90;90.70;;;;;;5079097;28;20829;-48
2022/04/30 02:53:38;;;;;;;17.03;15.30;;;12.80;90.80;;;;;;5078755;28;20489;-47
2022/04/30 02:56:09;;;;;;;17.47;15.67;;;12.80;90.90;;;;;;5079567;28;20427;-47
2022/04/30 03:01:20;;;;;;;20.77;18.57;;;12.70;91.20;;;;;;5078409;28;20411;-47
2022/04/30 03:03:49;;;;;;;18.23;16.43;;;12.70;91.50;;;;;;5078831;28;20432;-48
2022/04/30 03:06:16;;;;;;;18.93;17.03;;;12.70;91.70;;;;;;5079479;28;20400;-47
2022/04/30 03:08:45;;;;;;;21.47;18.17;;;12.70;91.80;;;;;;5079043;28;20440;-45
2022/04/30 03:11:12;;;;;;;18.10;16.17;;;12.70;91.90;;;;;;5079152;28;20403;-47
2022/04/30 03:13:38;;;;;;;22.80;19.00;;;12.70;92.00;;;;;;5060798;28;20429;-47
2022/04/30 03:21:47;;;;;;;22.50;20.10;;;12.70;92.40;;;;;;5063696;28;20580;-47
2022/04/30 03:24:17;;;;;;;21.33;19.03;;;12.60;92.50;;;;;;5062283;28;20430;-47
2022/04/30 03:26:44;;;;;;;26.40;20.00;;;12.60;92.70;;;;;;5079367;28;20940;-47
2022/04/30 03:29:10;;;;;;;23.27;20.50;;;12.60;92.90;;;;;;5078776;28;20412;-48
2022/04/30 03:31:39;;;;;;;23.77;21.10;;;12.60;93.00;;;;;;5061299;28;20573;-47
2022/04/30 03:34:14;;;;;;;28.27;21.37;;;12.60;93.10;;;;;;5078575;28;20427;-47
2022/04/30 03:36:40;;;;;;;24.87;22.17;;;12.50;93.10;;;;;;5079059;28;20701;-47
2022/04/30 03:39:06;;;;;;;28.60;22.03;;;12.50;93.20;;;;;;5078565;28;20420;-47
2022/04/30 03:41:32;;;;;;;25.53;21.77;;;12.50;93.30;;;;;;5060796;28;20189;-48
2022/04/30 03:43:58;;;;;;;25.10;22.40;;;12.50;93.40;;;;;;5078604;28;20440;-45
2022/04/30 03:46:23;;;;;;;24.17;21.67;;;12.50;93.50;;;;;;5078704;28;20485;-45
2022/04/30 03:48:53;;;;;;;24.97;19.77;;;12.50;93.60;;;;;;5078565;28;20497;-45
2022/04/30 03:51:21;;;;;;;24.20;20.97;;;12.50;93.40;;;;;;5078757;28;20192;-45
2022/04/30 03:53:46;;;;;;;25.83;21.00;;;12.50;93.40;;;;;;5077460;28;20558;-45
2022/04/30 03:56:12;;;;;;;28.90;21.90;;;12.50;93.50;;;;;;5077798;28;20526;-44
2022/04/30 03:58:38;;;;;;;24.13;21.67;;;12.50;93.60;;;;;;5077636;28;20207;-47
2022/04/30 04:01:04;;;;;;;23.70;21.30;;;12.40;93.70;;;;;;5077635;28;20553;-46
2022/04/30 04:03:29;;;;;;;25.20;21.93;;;12.40;93.70;;;;;;5077119;28;20566;-47
2022/04/30 04:05:55;;;;;;;24.27;20.07;;;12.40;93.90;;;;;;5077685;28;20181;-47
2022/04/30 04:08:21;;;;;;;25.47;22.90;;;12.40;93.80;;;;;;5076162;28;20193;-47
2022/04/30 04:10:47;;;;;;;26.87;23.20;;;12.40;93.80;;;;;;5078080;28;20424;-47
2022/04/30 04:19:58;;;;;;;25.37;22.87;;;12.40;94.20;;;;;;5076461;28;20827;-47
2022/04/30 04:22:23;;;;;;;26.70;23.10;;;12.40;94.40;;;;;;5076452;28;20510;-47
2022/04/30 04:27:33;;;;;;;24.83;22.40;;;12.30;94.30;;;;;;5076699;28;20255;-45
2022/04/30 04:29:59;;;;;;;25.10;22.53;;;12.40;94.50;;;;;;5076849;28;20428;-45
2022/04/30 04:32:25;;;;;;;26.03;23.20;;;12.40;94.50;;;;;;5077159;28;20189;-47
2022/04/30 04:34:50;;;;;;;28.97;24.53;;;12.40;94.50;;;;;;5076305;28;20190;-47
2022/04/30 04:37:16;;;;;;;27.70;24.90;;;12.40;94.60;;;;;;5076961;28;20190;-47
2022/04/30 04:39:42;;;;;;;27.70;23.27;;;12.40;94.60;;;;;;5077157;28;20213;-47
2022/04/30 04:42:07;;;;;;;27.30;24.40;;;12.40;94.80;;;;;;5077524;28;20186;-47
2022/04/30 04:44:34;;;;;;;28.83;25.57;;;12.40;94.90;;;;;;5077571;28;20247;-47
2022/04/30 04:47:01;;;;;;;27.90;24.03;;;12.40;94.90;;;;;;5076933;28;20218;-47
2022/04/30 04:49:27;;;;;;;27.30;24.40;;;12.40;94.90;;;;;;5076709;28;20421;-47
2022/04/30 04:51:53;;;;;;;25.63;23.03;;;12.40;95.00;;;;;;5076172;28;20511;-47
2022/04/30 04:54:19;;;;;;;27.87;24.50;;;12.40;95.00;;;;;;5076232;28;20514;-46
2022/04/30 04:56:45;;;;;;;26.90;24.10;;;12.30;95.40;;;;;;5076537;28;20535;-47
2022/04/30 04:59:12;;;;;;;28.43;25.27;;;12.40;95.10;;;;;;5075972;28;20635;-47
2022/04/30 05:01:40;;;;;;;26.97;24.17;;;12.40;95.30;;;;;;5076222;28;20485;-47
2022/04/30 05:04:09;;;;;;;25.27;22.67;;;12.30;95.20;;;;;;5076986;28;20463;-47
2022/04/30 05:06:35;;;;;;;26.90;23.87;;;12.40;95.40;;;;;;5076480;28;20432;-47
2022/04/30 05:09:02;;;;;;;26.17;23.37;;;12.30;95.50;;;;;;5076398;28;20497;-47
2022/04/30 05:11:27;;;;;;;27.37;23.93;;;12.30;95.60;;;;;;5077146;28;20528;-48
2022/04/30 05:13:53;;;;;;;25.50;22.30;;;12.40;95.70;;;;;;5076998;28;20520;-47
2022/04/30 05:16:19;;;;;;;28.67;25.67;;;12.40;95.70;;;;;;5076894;28;20193;-47
2022/04/30 05:18:44;;;;;;;26.80;24.10;;;12.30;95.70;;;;;;5076003;28;20537;-47
2022/04/30 05:21:10;;;;;;;27.20;24.17;;;12.40;95.90;;;;;;5075250;28;20241;-47
2022/04/30 05:23:37;;;;;;;26.07;23.27;;;12.40;95.80;;;;;;5059136;28;20271;-47
2022/04/30 05:26:03;;;;;;;26.70;23.90;;;12.40;95.90;;;;;;5076472;28;20185;-47
2022/04/30 05:28:28;;;;;;;24.83;21.70;;;12.40;96.00;;;;;;5076743;28;20462;-47
2022/04/30 05:30:54;;;;;;;29.10;24.30;;;12.40;95.90;;;;;;5076421;28;20441;-47
2022/04/30 05:33:20;;;;;;;26.37;23.57;;;12.40;96.00;;;;;;5076765;28;20197;-47
2022/04/30 05:35:45;;;;;;;24.70;22.20;;;12.30;96.00;;;;;;5076401;28;20358;-47
2022/04/30 05:38:11;;;;;;;23.33;21.00;;;12.30;96.10;;;;;;5059059;28;20183;-47
2022/04/30 05:40:37;;;;;;;24.40;21.97;;;12.40;96.10;;;;;;5076153;28;20217;-47
2022/04/30 05:43:04;;;;;;;25.83;21.00;;;12.40;96.10;;;;;;5076302;28;20598;-47
2022/04/30 05:45:30;;;;;;;24.80;22.17;;;12.40;96.00;;;;;;5076147;28;20181;-47
2022/04/30 05:47:56;;;;;;;26.20;22.37;;;12.40;96.00;;;;;;5076149;28;20485;-47
2022/04/30 05:50:22;;;;;;;25.60;22.80;;;12.40;95.90;;;;;;5076355;28;20489;-47
2022/04/30 05:52:48;;;;;;;25.57;22.60;;;12.40;95.80;;;;;;5058985;28;20316;-47
2022/04/30 05:55:14;;;;;;;23.77;21.37;;;12.40;95.90;;;;;;5076656;28;20436;-47
2022/04/30 05:57:41;;;;;;;24.47;22.03;;;12.40;96.00;;;;;;5076551;28;20429;-47
2022/04/30 06:00:08;;;;;;;26.50;23.73;;;12.40;96.00;;;;;;5058630;28;20502;-48
2022/04/30 06:02:34;;;;;;;23.97;21.40;;;12.50;96.00;;;;;;5076748;28;20701;-47
2022/04/30 06:05:00;;;;;;;23.37;21.00;;;12.50;96.00;;;;;;5076183;28;20416;-47
2022/04/30 06:07:26;;;;;;;24.10;21.60;;;12.50;96.10;;;;;;5076817;28;20425;-47
2022/04/30 06:09:52;;;;;;;24.80;22.30;;;12.50;96.00;;;;;;5075927;28;20712;-48
2022/04/30 06:12:19;;;;;;;23.90;21.30;;;12.60;96.00;;;;;;5075510;28;20264;-47
2022/04/30 06:14:45;;;;;;;22.87;20.47;;;12.70;96.00;;;;;;5075646;28;20283;-47
2022/04/30 06:17:11;;;;;;;23.10;20.23;;;12.80;96.00;;;;;;5075497;28;20569;-48
2022/04/30 06:19:37;;;;;;;22.70;20.40;;;12.90;96.00;;;;;;5076725;28;20571;-48
2022/04/30 06:22:03;;;;;;;24.47;22.03;;;13.00;95.80;;;;;;5079583;28;20189;-47
2022/04/30 06:24:29;;;;;;;21.20;19.10;;;13.10;95.50;;;;;;5079376;28;20423;-47
2022/04/30 06:26:55;;;;;;;22.60;20.40;;;13.20;95.50;;;;;;5079185;28;20518;-47
2022/04/30 06:29:22;;;;;;;22.37;20.07;;;13.30;95.30;;;;;;5079157;28;20588;-47
2022/04/30 06:31:50;;;;;;;21.80;19.70;;;13.30;95.10;;;;;;5079239;28;20427;-47
2022/04/30 06:34:16;;;;;;;20.57;18.00;;;13.40;95.00;;;;;;5079796;28;20490;-48
2022/04/30 06:36:41;;;;;;;21.60;19.47;;;13.40;95.00;;;;;;5078419;28;20474;-48
2022/04/30 06:39:07;;;;;;;20.70;18.73;;;13.50;94.90;;;;;;5079248;28;20456;-47
2022/04/30 06:41:34;;;;;;;19.83;17.87;;;13.50;94.80;;;;;;5079135;28;20186;-47
2022/04/30 06:43:59;;;;;;;21.50;19.37;;;13.50;94.70;;;;;;5061576;28;20417;-48
2022/04/30 06:46:25;;;;;;;21.73;19.77;;;13.50;94.60;;;;;;5077303;28;20678;-47
2022/04/30 06:48:50;;;;;;;21.63;19.50;;;13.50;94.60;;;;;;5077848;28;20330;-47
2022/04/30 06:51:16;;;;;;;19.57;17.60;;;13.50;94.60;;;;;;5077865;28;20181;-48
2022/04/30 06:59:11;;;;;;;19.13;17.27;;;13.60;94.50;;;;;;5078822;28;20540;-48
2022/04/30 07:01:59;;;;;;;19.30;17.33;;;13.60;94.50;;;;;;5078470;28;20724;-48
2022/04/30 07:04:26;;;;;;;20.07;18.13;;;13.50;94.50;;;;;;5077773;28;20702;-43
2022/04/30 07:06:52;;;;;;;20.13;18.20;;;13.50;94.50;;;;;;5077002;28;20524;-43
2022/04/30 07:09:18;;;;;;;17.87;16.10;;;13.50;94.50;;;;;;5077807;28;20634;-43
2022/04/30 07:11:45;;;;;;;19.20;17.40;;;13.60;94.60;;;;;;5076693;28;20419;-44
2022/04/30 07:14:10;;;;;;;19.30;17.50;;;13.60;94.50;;;;;;5078307;28;20748;-42
2022/04/30 07:16:36;;;;;;;19.80;17.93;;;13.60;94.50;;;;;;5078304;28;20434;-46
2022/04/30 07:19:03;;;;;;;19.70;17.77;;;13.60;94.40;;;;;;5059585;28;20452;-43
2022/04/30 07:21:31;;;;;;;17.10;15.50;;;13.60;94.40;;;;;;5074618;28;20420;-47
2022/04/30 07:23:57;;;;;;;19.30;17.30;;;13.60;94.40;;;;;;5075603;28;20419;-43
2022/04/30 07:26:23;;;;;;;20.40;18.50;;;13.60;94.40;;;;;;5075511;28;20462;-45
2022/04/30 07:28:48;;;;;;;21.60;19.50;;;13.60;94.40;;;;;;5076462;28;20416;-45
2022/04/30 07:31:14;;;;;;;20.97;18.97;;;13.60;94.40;;;;;;5074861;28;20178;-45
2022/04/30 07:33:40;;;;;;;22.73;20.70;;;13.60;94.40;;;;;;5076375;28;20182;-42
2022/04/30 07:36:06;;;;;;;22.83;20.57;;;13.50;94.40;;;;;;5076141;28;20188;-44
2022/04/30 07:38:32;;;;;;;23.80;21.70;;;13.50;94.40;;;;;;5077267;28;20426;-46
2022/04/30 07:40:58;;;;;;;22.40;20.30;;;13.50;94.50;;;;;;5077104;28;20629;-45
2022/04/30 07:43:23;;;;;;;21.67;19.37;;;13.40;94.50;;;;;;5077031;28;20440;-42
2022/04/30 07:45:49;;;;;;;22.53;20.37;;;13.40;94.50;;;;;;5077561;28;20580;-44
2022/04/30 07:48:15;;;;;;;21.10;19.00;;;13.40;94.60;;;;;;5077027;28;20171;-43
2022/04/30 07:50:44;;;;;;;19.70;17.80;;;13.40;94.70;;;;;;5076560;28;20186;-43
2022/04/30 07:53:11;;;;;;;19.23;17.33;;;13.40;94.80;;;;;;5058817;28;20255;-42
2022/04/30 07:55:36;;;;;;;18.57;16.83;;;13.40;94.90;;;;;;5075816;28;20424;-46
2022/04/30 07:58:02;;;;;;;18.80;15.87;;;13.40;95.00;;;;;;5074660;28;20875;-45
2022/04/30 08:00:29;;;;;;;16.77;15.17;;;13.40;95.00;;;;;;5050103;28;20252;-43
2022/04/30 08:02:55;;;;;;;18.10;16.43;;;13.40;95.00;;;;;;5056217;28;20178;-44
2022/04/30 08:05:22;;;;;;;17.10;15.40;;;13.40;95.00;;;;;;5056864;28;20447;-43
2022/04/30 08:07:48;;;;;;;16.77;15.17;;;13.30;95.00;;;;;;5056386;28;20501;-46
2022/04/30 08:10:13;;;;;;;17.83;16.13;;;13.30;95.00;;;;;;5056358;28;20416;-46
2022/04/30 08:12:39;;;;;;;16.43;15.00;;;13.30;95.00;;;;;;5056354;28;20190;-46
2022/04/30 08:15:05;;;;;;;18.80;17.07;;;13.30;95.00;;;;;;5056383;28;20186;-43
2022/04/30 08:17:31;;;;;;;17.77;15.93;;;13.30;95.00;;;;;;5056384;28;20533;-46
2022/04/30 08:19:57;;;;;;;16.03;14.50;;;13.30;95.00;;;;;;5055285;28;20506;-42
2022/04/30 08:22:22;;;;;;;15.90;14.40;;;13.30;95.00;;;;;;5054211;28;20491;-43
2022/04/30 08:24:48;;;;;;;15.17;13.67;;;13.40;95.00;;;;;;5037337;28;20232;-44
2022/04/30 08:27:14;;;;;;;16.93;15.37;;;13.40;94.90;;;;;;5054131;28;20214;-43
2022/04/30 08:29:40;;;;;;;15.73;14.23;;;13.50;94.90;;;;;;5051741;28;20178;-45
2022/04/30 08:32:06;;;;;;;13.70;12.40;;;13.60;94.90;;;;;;5051870;28;20472;-42
2022/04/30 08:34:32;;;;;;;15.10;13.70;;;13.60;94.90;;;;;;5036909;28;20485;-44
2022/04/30 08:36:58;;;;;;;14.77;13.37;;;13.70;94.70;;;;;;5055850;28;20433;-43
2022/04/30 08:39:23;;;;;;;12.80;11.70;;;13.80;94.60;;;;;;5056243;28;20503;-43
2022/04/30 08:41:50;;;;;;;15.07;13.50;;;13.90;94.50;;;;;;5054447;28;20273;-42
2022/04/30 08:44:17;;;;;;;13.70;12.50;;;13.90;94.30;;;;;;5059506;28;20189;-42
2022/04/30 08:46:43;;;;;;;12.93;11.60;;;14.00;94.20;;;;;;5076197;28;20835;-43
2022/04/30 08:49:10;;;;;;;12.40;11.30;;;14.00;94.10;;;;;;5076855;28;20416;-43
2022/04/30 08:51:36;;;;;;;12.30;11.10;;;14.10;94.00;;;;;;5058599;28;20703;-42
2022/04/30 08:54:02;;;;;;;12.67;11.50;;;14.20;93.90;;;;;;5075845;28;20459;-43
2022/04/30 08:56:28;;;;;;;12.63;11.53;;;14.40;93.80;;;;;;5074628;28;20408;-43
2022/04/30 08:59:02;;;;;;;12.53;11.33;;;14.50;93.60;;;;;;5056747;28;20447;-47
2022/04/30 09:01:28;;;;;;;11.30;10.23;;;14.70;93.50;;;;;;5075747;28;20599;-44
2022/04/30 09:03:56;;;;;;;11.47;10.37;;;14.80;93.30;;;;;;5074925;28;20434;-42
2022/04/30 09:06:22;;;;;;;11.70;10.70;;;15.00;93.00;;;;;;5074460;28;20435;-44
2022/04/30 09:08:51;;;;;;;10.50;9.60;;;15.20;92.80;;;;;;5057160;28;20888;-43
2022/04/30 09:11:26;;;;;;;10.37;9.37;;;15.30;92.50;;;;;;5056325;28;20420;-43
2022/04/30 09:13:52;;;;;;;9.50;8.60;;;15.50;92.30;;;;;;5074795;28;20516;-44
2022/04/30 09:16:22;;;;;;;10.87;9.90;;;15.60;92.10;;;;;;5074384;28;20450;-44
2022/04/30 09:18:49;;;;;;;5.63;5.23;;;15.60;91.60;;;;;;5073865;28;20416;-44
2022/04/30 09:21:17;;;;;;;5.30;4.90;;;15.80;90.80;;;;;;5074676;28;20765;-43
2022/04/30 09:23:43;;;;;;;5.20;4.77;;;16.10;89.30;;;;;;5057860;28;20530;-44
2022/04/30 09:26:10;;;;;;;5.17;4.77;;;16.40;87.70;;;;;;5074572;28;20416;-45
2022/04/30 09:28:37;;;;;;;5.47;4.93;;;16.70;86.30;;;;;;5073514;28;20508;-44
2022/04/30 09:31:08;;;;;;;6.10;5.30;;;17.00;84.90;;;;;;5075375;28;20419;-45
2022/04/30 09:33:38;;;;;;;5.20;4.73;;;17.20;83.50;;;;;;5056059;28;20436;-44
2022/04/30 09:38:51;;;;;;;5.20;4.70;;;17.80;81.30;;;;;;5073516;28;20426;-44
2022/04/30 09:41:25;;;;;;;4.87;4.47;;;18.20;80.00;;;;;;5075023;28;20632;-44
2022/04/30 09:44:01;;;;;;;6.57;4.63;;;18.60;78.80;;;;;;5074470;28;20462;-45
2022/04/30 09:46:28;;;;;;;5.10;4.70;;;19.10;77.50;;;;;;5074506;28;20965;-47
2022/04/30 09:54:26;;;;;;;5.13;4.73;;;20.80;72.20;;;;;;5073620;28;20766;-44
2022/04/30 09:56:53;;;;;;;5.07;4.67;;;21.20;71.30;;;;;;5078073;28;20523;-46
2022/04/30 09:59:22;;;;;;;6.93;6.33;;;21.40;68.60;;;;;;5060496;28;20424;-45
2022/04/30 10:01:48;;;;;;;5.20;4.80;;;21.60;67.00;;;;;;5078061;28;20432;-45
2022/04/30 10:04:16;;;;;;;4.83;4.40;;;21.70;66.50;;;;;;5077925;28;20451;-45
2022/04/30 10:06:48;;;;;;;5.80;5.23;;;21.80;65.40;;;;;;5076384;28;20528;-44
2022/04/30 10:09:21;;;;;;;5.93;5.33;;;21.70;64.60;;;;;;5076528;28;20759;-46
2022/04/30 10:12:01;;;;;;;4.63;4.33;;;21.60;64.40;;;;;;5075998;28;20428;-47
2022/04/30 10:14:33;;;;;;;4.50;4.20;;;21.50;64.10;;;;;;5059237;28;20452;-45
2022/04/30 10:17:13;;;;;;;4.30;3.90;;;21.50;63.40;;;;;;5077644;28;20453;-47
2022/04/30 10:20:04;;;;;;;4.27;3.67;;;21.50;63.40;;;;;;5077350;28;20465;-44
2022/04/30 10:22:30;;;;;;;4.90;4.40;;;21.50;63.30;;;;;;5077972;28;20459;-47
2022/04/30 10:24:57;;;;;;;4.77;4.40;;;21.50;62.80;;;;;;5078743;28;20437;-44
2022/04/30 10:27:24;;;;;;;4.30;4.00;;;21.60;62.00;;;;;;5078503;28;20206;-44
2022/04/30 10:29:58;;;;;;;5.07;4.50;;;21.70;61.90;;;;;;5059213;28;20429;-44
2022/04/30 10:32:27;;;;;;;4.33;4.00;;;21.80;61.10;;;;;;5076289;28;20562;-46
2022/04/30 10:34:53;;;;;;;4.67;4.27;;;22.00;60.40;;;;;;5077169;28;20466;-42
2022/04/30 10:37:31;;;;;;;4.50;4.10;;;22.30;59.50;;;;;;5077849;28;20439;-45
2022/04/30 10:40:04;;;;;;;4.73;4.33;;;22.80;58.90;;;;;;5076814;28;20317;-45
2022/04/30 10:42:44;;;;;;;4.93;4.63;;;23.40;57.90;;;;;;5076754;28;20849;-44
2022/04/30 10:45:15;;;;;;;4.37;4.07;;;23.90;56.40;;;;;;5076122;28;20414;-44
2022/04/30 10:47:52;;;;;;;4.10;3.80;;;24.20;55.50;;;;;;5075500;28;20404;-43
2022/04/30 10:50:18;;;;;;;3.63;3.33;;;24.40;54.70;;;;;;5076238;28;20846;-45
2022/04/30 10:52:48;;;;;;;4.50;3.60;;;24.50;54.00;;;;;;5076782;28;20461;-42
2022/04/30 10:55:15;;;;;;;4.40;4.00;;;24.40;53.50;;;;;;5077141;28;20478;-46
2022/04/30 10:57:44;;;;;;;3.50;3.20;;;24.50;53.20;;;;;;5077662;28;20518;-44
2022/04/30 11:00:11;;;;;;;3.70;3.40;;;24.40;52.90;;;;;;5077409;28;20955;-45
2022/04/30 11:02:37;;;;;;;3.07;2.87;;;24.30;52.50;;;;;;5077908;28;20722;-45
2022/04/30 11:05:03;;;;;;;3.77;3.47;;;24.20;52.40;;;;;;5059149;28;20455;-44
2022/04/30 11:07:30;;;;;;;5.33;4.87;;;24.20;52.30;;;;;;5074255;28;20702;-47
2022/04/30 11:09:56;;;;;;;3.90;3.60;;;24.00;51.70;;;;;;5076446;28;20422;-45
2022/04/30 11:12:30;;;;;;;4.07;3.77;;;23.80;52.10;;;;;;5075602;28;20833;-44
2022/04/30 11:14:57;;;;;;;4.67;4.27;;;23.50;52.20;;;;;;5058158;28;20417;-46
2022/04/30 11:17:23;;;;;;;5.30;4.57;;;23.20;52.10;;;;;;5075096;28;20424;-44
2022/04/30 11:19:49;;;;;;;5.00;4.60;;;23.00;52.10;;;;;;5075963;28;20506;-46
2022/04/30 11:22:17;;;;;;;5.43;5.03;;;22.80;52.30;;;;;;5077167;28;20428;-47
2022/04/30 11:24:43;;;;;;;4.57;4.17;;;22.80;52.40;;;;;;5077838;28;20181;-45
2022/04/30 11:27:09;;;;;;;3.40;3.10;;;22.90;51.90;;;;;;5076774;28;20421;-46
2022/04/30 11:30:08;;;;;;;4.60;4.20;;;23.10;51.60;;;;;;5059038;28;20476;-45
2022/04/30 11:32:34;;;;;;;3.70;3.40;;;23.50;51.20;;;;;;5004775;28;20455;-46
2022/04/30 11:35:04;;;;;;;3.40;3.10;;;23.80;50.60;;;;;;5076828;28;20417;-46
2022/04/30 11:37:40;;;;;;;3.10;2.80;;;24.00;50.30;;;;;;5076234;28;20217;-44
2022/04/30 11:40:07;;;;;;;4.47;3.83;;;24.30;50.30;;;;;;5077238;28;20538;-47
2022/04/30 11:42:33;;;;;;;5.80;5.20;;;24.60;50.00;;;;;;5073333;28;20427;-48
2022/04/30 11:44:58;;;;;;;5.70;5.10;;;24.60;49.90;;;;;;5074539;28;20420;-46
2022/04/30 11:47:24;;;;;;;5.57;5.03;;;24.90;49.50;;;;;;5058475;28;20438;-45
2022/04/30 11:50:08;;;;;;;5.10;4.57;;;25.60;48.60;;;;;;5076945;28;20640;-46
2022/04/30 11:52:35;;;;;;;6.60;5.63;;;26.60;47.70;;;;;;5057237;28;20561;-46
2022/04/30 11:55:05;;;;;;;5.30;4.40;;;27.30;46.30;;;;;;5058671;28;20425;-44
2022/04/30 11:57:32;;;;;;;6.27;5.70;;;27.20;45.30;;;;;;5074358;28;20489;-48
2022/04/30 11:59:58;;;;;;;5.50;4.97;;;26.90;44.70;;;;;;5074771;28;20574;-45
2022/04/30 12:02:24;;;;;;;6.07;5.40;;;26.30;44.80;;;;;;5058048;28;20748;-43
2022/04/30 12:04:52;;;;;;;9.43;8.17;;;25.90;45.00;;;;;;5075987;28;20412;-45
2022/04/30 12:07:17;;;;;;;7.80;7.00;;;25.70;45.20;;;;;;5074746;28;20275;-44
2022/04/30 12:09:50;;;;;;;6.73;6.10;;;25.50;45.00;;;;;;5075305;28;20502;-48
2022/04/30 12:12:23;;;;;;;5.83;5.40;;;25.50;45.20;;;;;;5075558;28;20215;-43
2022/04/30 12:14:55;;;;;;;7.43;6.57;;;26.10;45.20;;;;;;5076438;28;20859;-48
2022/04/30 12:17:31;;;;;;;6.20;5.70;;;26.40;44.10;;;;;;5057016;28;20758;-44
2022/04/30 12:25:30;;;;;;;8.07;7.27;;;26.60;43.20;;;;;;5074150;28;20480;-45
2022/04/30 12:28:03;;;;;;;8.70;7.80;;;26.70;43.30;;;;;;5074055;28;20422;-44
2022/04/30 12:30:29;;;;;;;9.10;8.17;;;27.10;42.90;;;;;;5074576;28;20206;-46
2022/04/30 12:33:05;;;;;;;11.53;9.47;;;27.20;42.30;;;;;;5075504;28;20813;-50
2022/04/30 12:35:38;;;;;;;7.37;6.63;;;26.70;41.60;;;;;;5075265;28;20429;-44
2022/04/30 12:38:14;;;;;;;5.70;5.30;;;26.30;41.70;;;;;;5076198;28;20518;-46
2022/04/30 12:40:49;;;;;;;5.90;5.40;;;25.90;42.10;;;;;;5076277;28;20565;-44
2022/04/30 12:43:16;;;;;;;5.53;5.03;;;25.50;42.40;;;;;;5075832;28;20712;-46
2022/04/30 12:45:45;;;;;;;4.60;4.23;;;25.30;42.30;;;;;;5075823;28;20448;-44
2022/04/30 12:48:11;;;;;;;3.93;3.63;;;25.40;41.70;;;;;;5076493;28;20447;-43
2022/04/30 12:50:38;;;;;;;3.40;3.20;;;25.80;41.70;;;;;;5076555;28;20401;-46
2022/04/30 12:53:09;;;;;;;3.20;2.90;;;26.30;41.30;;;;;;5075707;28;20257;-45
2022/04/30 12:55:38;;;;;;;4.30;3.90;;;26.30;41.00;;;;;;5075977;28;20519;-45
2022/04/30 12:58:04;;;;;;;3.53;3.23;;;25.90;40.60;;;;;;5075580;28;20517;-46
2022/04/30 13:00:30;;;;;;;3.07;2.87;;;25.20;40.30;;;;;;5075804;28;20466;-49
2022/04/30 13:02:56;;;;;;;3.23;3.03;;;24.70;40.90;;;;;;5074937;28;20173;-45
2022/04/30 13:05:22;;;;;;;3.20;3.00;;;24.40;41.30;;;;;;5075980;28;20422;-45
2022/04/30 13:07:47;;;;;;;4.30;4.00;;;23.90;41.70;;;;;;5074877;28;20184;-49
2022/04/30 13:15:42;;;;;;;4.53;4.23;;;22.60;43.10;;;;;;5074125;28;20570;-46
2022/04/30 13:18:08;;;;;;;4.83;4.33;;;22.40;43.10;;;;;;5076397;28;20428;-46
2022/04/30 13:20:34;;;;;;;4.23;3.93;;;22.30;43.30;;;;;;5074138;28;20475;-45
2022/04/30 13:23:01;;;;;;;4.93;4.57;;;22.20;43.40;;;;;;5074094;28;20511;-45
2022/04/30 13:25:27;;;;;;;3.93;3.63;;;22.00;43.60;;;;;;5073127;28;20424;-44